createdAt,value
2019-04-16T00:02:31.542Z,78.80
2019-04-16T00:05:09.345Z,74.23
2019-04-16T00:07:41.067Z,72.13
2019-04-16T00:10:17.235Z,72.30
2019-04-16T00:12:50.999Z,73.93
2019-04-16T00:15:22.357Z,83.80
2019-04-16T00:17:51.738Z,89.37
2019-04-16T00:20:22.849Z,82.53
2019-04-16T00:25:32.550Z,96.07
2019-04-16T00:28:02.793Z,98.97
2019-04-16T00:30:35.754Z,98.80
2019-04-16T00:33:07.574Z,101.43
2019-04-16T00:35:57.519Z,102.60
2019-04-16T00:38:40.442Z,89.57
2019-04-16T00:41:06.043Z,108.00
2019-04-16T00:43:43.924Z,115.03
2019-04-16T00:46:12.556Z,77.33
2019-04-16T00:48:45.667Z,67.90
2019-04-16T00:51:16.770Z,69.00
2019-04-16T00:53:46.750Z,71.27
2019-04-16T00:56:20.471Z,63.00
2019-04-16T00:58:53.677Z,63.03
2019-04-16T01:01:25.370Z,62.73
2019-04-16T01:03:56.391Z,62.67
2019-04-16T01:06:27.535Z,51.37
2019-04-16T01:08:57.633Z,65.77
2019-04-16T01:11:27.733Z,76.30
2019-04-16T01:13:57.730Z,67.00
2019-04-16T01:16:50.905Z,61.13
2019-04-16T01:19:22.874Z,73.37
2019-04-16T01:21:53.993Z,69.87
2019-04-16T01:24:27.134Z,70.83
2019-04-16T01:26:59.106Z,88.73
2019-04-16T01:29:33.566Z,78.60
2019-04-16T01:32:10.661Z,80.13
2019-04-16T01:34:48.318Z,80.63
2019-04-16T01:37:25.810Z,71.13
2019-04-16T01:40:07.255Z,63.73
2019-04-16T01:42:38.360Z,67.17
2019-04-16T01:45:07.854Z,64.77
2019-04-16T01:47:39.322Z,64.53
2019-04-16T01:50:13.688Z,64.43
2019-04-16T01:52:43.742Z,70.00
2019-04-16T01:55:14.741Z,60.87
2019-04-16T01:57:49.524Z,67.87
2019-04-16T02:00:20.708Z,63.77
2019-04-16T02:02:53.381Z,62.73
2019-04-16T02:05:24.305Z,55.63
2019-04-16T02:07:56.332Z,48.27
2019-04-16T02:10:28.702Z,42.33
2019-04-16T02:12:59.600Z,43.47
2019-04-16T02:15:32.166Z,43.37
2019-04-16T02:18:06.215Z,46.67
2019-04-16T02:20:39.679Z,43.67
2019-04-16T02:23:13.356Z,47.13
2019-04-16T02:25:44.007Z,47.07
2019-04-16T02:28:16.518Z,54.60
2019-04-16T02:30:47.735Z,53.77
2019-04-16T02:33:20.303Z,49.20
2019-04-16T02:35:51.423Z,58.13
2019-04-16T02:38:24.119Z,46.97
2019-04-16T02:40:55.379Z,51.40
2019-04-16T02:43:28.755Z,52.27
2019-04-16T02:45:59.793Z,46.97
2019-04-16T02:48:34.928Z,48.90
2019-04-16T02:51:10.589Z,49.67
2019-04-16T02:53:48.816Z,52.93
2019-04-16T02:56:26.738Z,48.73
2019-04-16T02:58:59.531Z,54.20
2019-04-16T03:01:49.428Z,51.67
2019-04-16T03:04:26.721Z,46.43
2019-04-16T03:07:04.330Z,45.60
2019-04-16T03:09:39.742Z,52.83
2019-04-16T03:12:10.246Z,53.97
2019-04-16T03:14:43.872Z,60.73
2019-04-16T03:17:39.433Z,43.53
2019-04-16T03:20:10.967Z,49.57
2019-04-16T03:22:43.144Z,55.67
2019-04-16T03:25:15.916Z,51.90
2019-04-16T03:28:09.499Z,57.73
2019-04-16T03:30:42.838Z,46.53
2019-04-16T03:33:15.770Z,53.77
2019-04-16T03:35:48.297Z,52.20
2019-04-16T03:38:20.849Z,56.33
2019-04-16T03:43:31.847Z,56.30
2019-04-16T03:45:58.533Z,55.17
2019-04-16T03:48:29.619Z,54.60
2019-04-16T03:51:07.821Z,49.47
2019-04-16T03:53:38.235Z,59.43
2019-04-16T03:56:10.977Z,65.97
2019-04-16T03:58:43.326Z,57.50
2019-04-16T04:01:18.625Z,59.43
2019-04-16T04:03:48.928Z,63.57
2019-04-16T04:06:20.956Z,73.77
2019-04-16T04:08:53.318Z,64.17
2019-04-16T04:11:24.772Z,65.20
2019-04-16T04:13:57.316Z,65.67
2019-04-16T04:16:33.257Z,66.87
2019-04-16T04:19:02.176Z,64.60
2019-04-16T04:21:34.239Z,64.87
2019-04-16T04:24:05.905Z,54.53
2019-04-16T04:26:42.025Z,59.80
2019-04-16T04:29:13.329Z,50.57
2019-04-16T04:31:43.365Z,49.50
2019-04-16T04:34:16.944Z,49.33
2019-04-16T04:36:46.420Z,54.33
2019-04-16T04:39:19.818Z,44.70
2019-04-16T04:41:52.685Z,52.13
2019-04-16T04:44:24.268Z,38.43
2019-04-16T04:46:56.750Z,44.27
2019-04-16T04:49:30.520Z,55.70
2019-04-16T04:52:07.394Z,43.67
2019-04-16T04:54:38.417Z,47.43
2019-04-16T04:57:09.552Z,52.80
2019-04-16T04:59:41.935Z,51.07
2019-04-16T05:02:15.464Z,86.00
2019-04-16T05:04:53.376Z,100.70
2019-04-16T05:07:29.068Z,113.43
2019-04-16T05:10:04.560Z,85.20
2019-04-16T05:12:34.397Z,63.23
2019-04-16T05:15:07.626Z,59.20
2019-04-16T05:17:39.982Z,66.53
2019-04-16T05:20:15.023Z,62.33
2019-04-16T05:22:44.240Z,74.20
2019-04-16T05:25:16.809Z,72.83
2019-04-16T05:27:49.847Z,65.40
2019-04-16T05:30:22.091Z,66.97
2019-04-16T05:32:52.356Z,81.60
2019-04-16T05:35:25.039Z,64.10
2019-04-16T05:37:58.070Z,81.30
2019-04-16T05:40:35.103Z,67.17
2019-04-16T05:43:05.917Z,67.53
2019-04-16T05:45:37.847Z,80.30
2019-04-16T05:48:10.413Z,52.63
2019-04-16T05:50:43.994Z,48.30
2019-04-16T05:53:16.078Z,50.33
2019-04-16T05:55:51.497Z,46.93
2019-04-16T05:58:24.173Z,45.00
2019-04-16T06:01:04.795Z,42.77
2019-04-16T06:03:37.136Z,47.43
2019-04-16T06:06:10.767Z,45.53
2019-04-16T06:08:45.153Z,48.73
2019-04-16T06:11:28.101Z,47.90
2019-04-16T06:13:53.827Z,41.57
2019-04-16T06:16:40.292Z,46.80
2019-04-16T06:19:12.566Z,38.03
2019-04-16T06:22:04.106Z,41.03
2019-04-16T06:24:40.051Z,40.77
2019-04-16T06:27:10.703Z,39.73
2019-04-16T06:30:01.327Z,41.57
2019-04-16T06:32:46.466Z,41.43
2019-04-16T06:35:43.196Z,39.03
2019-04-16T06:38:16.195Z,45.17
2019-04-16T06:41:05.782Z,38.90
2019-04-16T06:43:50.518Z,42.40
2019-04-16T06:46:24.840Z,41.00
2019-04-16T06:48:57.570Z,38.17
2019-04-16T06:51:36.149Z,35.87
2019-04-16T06:54:11.538Z,36.70
2019-04-16T06:56:59.342Z,35.63
2019-04-16T06:59:30.997Z,30.40
2019-04-16T07:02:07.721Z,29.00
2019-04-16T07:04:40.067Z,27.77
2019-04-16T07:07:39.845Z,29.70
2019-04-16T07:10:12.828Z,34.23
2019-04-16T07:12:46.826Z,27.27
2019-04-16T07:15:23.065Z,18.30
2019-04-16T07:17:54.121Z,20.23
2019-04-16T07:20:26.103Z,15.90
2019-04-16T07:23:00.235Z,13.93
2019-04-16T07:25:39.772Z,18.00
2019-04-16T07:28:25.550Z,12.30
2019-04-16T07:31:32.871Z,12.57
2019-04-16T07:34:02.658Z,12.97
2019-04-16T07:36:39.580Z,16.50
2019-04-16T07:39:29.551Z,17.33
2019-04-16T07:42:22.280Z,13.70
2019-04-16T07:45:00.627Z,16.23
2019-04-16T07:47:39.988Z,18.97
2019-04-16T07:50:18.353Z,16.80
2019-04-16T07:52:56.521Z,11.77
2019-04-16T07:55:47.616Z,13.00
2019-04-16T07:58:21.792Z,12.20
2019-04-16T08:00:52.629Z,16.43
2019-04-16T08:03:28.321Z,10.77
2019-04-16T08:06:00.716Z,13.83
2019-04-16T08:08:39.224Z,11.07
2019-04-16T08:11:11.601Z,14.07
2019-04-16T08:13:47.058Z,11.43
2019-04-16T08:16:19.104Z,10.87
2019-04-16T08:18:51.072Z,10.53
2019-04-16T08:21:26.702Z,9.40
2019-04-16T08:24:14.620Z,7.77
2019-04-16T08:26:47.658Z,11.97
2019-04-16T08:29:20.248Z,10.77
2019-04-16T08:32:02.873Z,10.43
2019-04-16T08:34:40.446Z,12.13
2019-04-16T08:37:15.518Z,12.83
2019-04-16T08:39:50.153Z,13.77
2019-04-16T08:42:29.518Z,12.63
2019-04-16T08:45:08.701Z,12.87
2019-04-16T08:47:44.837Z,13.87
2019-04-16T08:50:13.470Z,14.27
2019-04-16T08:52:45.556Z,11.87
2019-04-16T08:55:28.548Z,12.37
2019-04-16T08:57:59.004Z,10.63
2019-04-16T09:00:34.694Z,16.63
2019-04-16T09:03:10.675Z,13.93
2019-04-16T09:05:43.211Z,14.73
2019-04-16T09:10:57.038Z,12.67
2019-04-16T09:13:31.773Z,11.50
2019-04-16T09:16:04.979Z,14.80
2019-04-16T09:18:45.151Z,12.93
2019-04-16T09:21:18.964Z,12.33
2019-04-16T09:24:09.539Z,14.63
2019-04-16T09:26:47.823Z,14.20
2019-04-16T09:29:32.172Z,10.93
2019-04-16T09:32:07.398Z,12.93
2019-04-16T09:34:42.333Z,13.87
2019-04-16T09:37:20.679Z,11.43
2019-04-16T09:40:16.645Z,14.23
2019-04-16T09:42:42.302Z,11.90
2019-04-16T09:45:18.098Z,13.63
2019-04-16T09:50:23.395Z,13.10
2019-04-16T09:52:55.427Z,13.47
2019-04-16T09:55:27.612Z,11.13
2019-04-16T09:58:05.864Z,12.10
2019-04-16T10:00:41.928Z,12.03
2019-04-16T10:03:31.670Z,11.37
2019-04-16T10:06:06.187Z,13.60
2019-04-16T10:08:44.320Z,9.47
2019-04-16T10:11:13.932Z,13.93
2019-04-16T10:13:46.465Z,13.27
2019-04-16T10:16:17.821Z,15.33
2019-04-16T10:18:49.723Z,10.93
2019-04-16T10:21:22.795Z,25.23
2019-04-16T10:23:58.002Z,12.67
2019-04-16T10:26:29.341Z,12.73
2019-04-16T10:29:06.107Z,12.67
2019-04-16T10:31:37.997Z,10.37
2019-04-16T10:34:10.739Z,11.20
2019-04-16T10:36:43.321Z,11.20
2019-04-16T10:39:34.990Z,14.83
2019-04-16T10:42:07.714Z,9.17
2019-04-16T10:44:43.317Z,16.03
2019-04-16T10:47:23.377Z,12.77
2019-04-16T10:50:25.041Z,22.70
2019-04-16T10:53:17.328Z,17.23
2019-04-16T10:55:49.365Z,10.80
2019-04-16T10:58:38.881Z,14.03
2019-04-16T11:01:14.327Z,10.30
2019-04-16T11:04:04.849Z,22.43
2019-04-16T11:06:40.104Z,12.43
2019-04-16T11:09:11.776Z,11.97
2019-04-16T11:11:44.298Z,12.97
2019-04-16T11:14:17.641Z,10.43
2019-04-16T11:16:50.599Z,14.73
2019-04-16T11:19:24.443Z,14.00
2019-04-16T11:21:59.903Z,11.60
2019-04-16T11:24:33.563Z,9.57
2019-04-16T11:27:08.253Z,15.13
2019-04-16T11:29:43.213Z,12.70
2019-04-16T11:32:16.114Z,11.23
2019-04-16T11:34:48.770Z,12.93
2019-04-16T11:37:22.492Z,8.73
2019-04-16T11:39:56.804Z,8.70
2019-04-16T11:42:31.522Z,11.17
2019-04-16T11:45:05.123Z,6.47
2019-04-16T11:47:35.524Z,7.47
2019-04-16T11:50:13.887Z,9.60
2019-04-16T11:52:46.967Z,19.83
2019-04-16T11:55:19.794Z,15.23
2019-04-16T11:57:51.755Z,14.93
2019-04-16T12:00:33.974Z,6.17
2019-04-16T12:03:05.833Z,11.77
2019-04-16T12:05:40.293Z,7.73
2019-04-16T12:08:34.645Z,10.00
2019-04-16T12:11:18.372Z,10.10
2019-04-16T12:13:51.262Z,7.90
2019-04-16T12:16:26.056Z,9.57
2019-04-16T12:19:18.303Z,8.50
2019-04-16T12:21:53.761Z,8.83
2019-04-16T12:24:48.120Z,8.45
2019-04-16T12:27:40.969Z,5.65
2019-04-16T12:30:20.819Z,5.67
2019-04-16T12:33:14.579Z,5.95
2019-04-16T12:35:52.825Z,7.28
2019-04-16T12:38:38.239Z,7.12
2019-04-16T12:41:11.676Z,6.30
2019-04-16T12:43:59.012Z,8.23
2019-04-16T12:46:38.302Z,5.63
2019-04-16T12:49:12.039Z,7.10
2019-04-16T12:51:50.128Z,9.23
2019-04-16T12:54:28.471Z,9.77
2019-04-16T12:57:04.284Z,5.13
2019-04-16T12:59:35.957Z,6.13
2019-04-16T13:02:13.958Z,4.17
2019-04-16T13:04:56.270Z,9.93
2019-04-16T13:07:27.972Z,5.45
2019-04-16T13:10:08.363Z,5.10
2019-04-16T13:12:43.581Z,6.27
2019-04-16T13:15:22.699Z,7.73
2019-04-16T13:18:01.654Z,8.08
2019-04-16T13:20:48.668Z,6.47
2019-04-16T13:23:20.916Z,8.68
2019-04-16T13:26:12.834Z,5.40
2019-04-16T13:28:43.009Z,3.67
2019-04-16T13:31:13.365Z,6.35
2019-04-16T13:33:46.884Z,5.17
2019-04-16T13:36:27.875Z,4.78
2019-04-16T13:39:10.474Z,5.73
2019-04-16T13:41:42.638Z,3.00
2019-04-16T13:44:30.898Z,6.13
2019-04-16T13:47:02.944Z,4.77
2019-04-16T13:49:36.971Z,6.03
2019-04-16T13:52:08.424Z,8.93
2019-04-16T13:54:43.457Z,5.60
2019-04-16T13:57:25.180Z,3.60
2019-04-16T14:00:12.945Z,5.67
2019-04-16T14:03:14.156Z,5.80
2019-04-16T14:08:14.464Z,8.03
2019-04-16T14:10:44.616Z,6.43
2019-04-16T14:13:16.240Z,5.70
2019-04-16T14:15:46.166Z,11.03
2019-04-16T14:18:17.300Z,7.40
2019-04-16T14:20:48.579Z,6.35
2019-04-16T14:23:22.207Z,9.93
2019-04-16T14:25:53.363Z,4.77
2019-04-16T14:28:25.000Z,4.10
2019-04-16T14:30:56.441Z,8.23
2019-04-16T14:33:28.536Z,5.00
2019-04-16T14:36:02.182Z,6.87
2019-04-16T14:38:36.479Z,7.43
2019-04-16T14:41:07.301Z,6.10
2019-04-16T14:43:45.268Z,6.10
2019-04-16T14:48:49.091Z,5.40
2019-04-16T14:51:20.681Z,8.63
2019-04-16T14:53:52.536Z,3.63
2019-04-16T14:56:30.831Z,5.37
2019-04-16T14:59:08.672Z,5.17
2019-04-16T15:01:47.474Z,4.03
2019-04-16T15:04:21.917Z,5.60
2019-04-16T15:09:34.357Z,6.17
2019-04-16T15:12:16.073Z,9.03
2019-04-16T15:14:48.990Z,9.87
2019-04-16T15:17:22.814Z,7.13
2019-04-16T15:19:56.059Z,3.87
2019-04-16T15:25:19.416Z,6.67
2019-04-16T15:27:55.169Z,8.00
2019-04-16T15:33:40.983Z,4.97
2019-04-16T15:36:20.317Z,4.78
2019-04-16T15:39:02.959Z,8.57
2019-04-16T15:41:41.707Z,7.57
2019-04-16T15:44:15.859Z,6.73
2019-04-16T15:47:06.674Z,6.23
2019-04-16T15:49:38.977Z,4.10
2019-04-16T15:52:22.210Z,5.00
2019-04-16T15:55:03.325Z,4.77
2019-04-16T15:57:54.215Z,7.33
2019-04-16T16:00:45.720Z,7.80
2019-04-16T16:03:35.767Z,8.73
2019-04-16T16:06:20.430Z,13.67
2019-04-16T16:08:51.935Z,26.00
2019-04-16T16:11:44.288Z,8.80
2019-04-16T16:14:12.814Z,11.30
2019-04-16T16:16:50.713Z,8.13
2019-04-16T16:19:22.826Z,10.57
2019-04-16T16:21:59.192Z,9.00
2019-04-16T16:24:29.549Z,45.77
2019-04-16T16:26:59.888Z,24.70
2019-04-16T16:29:29.780Z,17.90
2019-04-16T16:32:01.163Z,11.13
2019-04-16T16:34:31.515Z,8.20
2019-04-16T16:37:02.636Z,14.57
2019-04-16T16:39:33.776Z,12.97
2019-04-16T16:42:06.137Z,10.97
2019-04-16T16:44:37.172Z,11.47
2019-04-16T16:47:29.899Z,15.43
2019-04-16T16:50:00.075Z,8.23
2019-04-16T16:52:35.797Z,10.63
2019-04-16T16:55:08.995Z,7.13
2019-04-16T16:57:51.535Z,8.17
2019-04-16T17:00:26.079Z,8.80
2019-04-16T17:03:08.375Z,10.60
2019-04-16T17:05:37.797Z,8.07
2019-04-16T17:08:12.436Z,6.80
2019-04-16T17:10:42.776Z,7.40
2019-04-16T17:13:16.960Z,6.50
2019-04-16T17:18:22.172Z,5.97
2019-04-16T17:20:55.069Z,11.90
2019-04-16T17:23:27.981Z,10.10
2019-04-16T17:25:59.914Z,10.57
2019-04-16T17:28:32.490Z,12.27
2019-04-16T17:31:06.624Z,9.87
2019-04-16T17:33:37.650Z,14.03
2019-04-16T17:36:08.904Z,18.20
2019-04-16T17:38:38.925Z,26.47
2019-04-16T17:41:12.050Z,15.47
2019-04-16T17:43:59.660Z,14.90
2019-04-16T17:46:28.215Z,15.00
2019-04-16T17:49:19.667Z,25.87
2019-04-16T17:51:53.989Z,19.57
2019-04-16T17:54:29.277Z,17.17
2019-04-16T17:57:11.035Z,24.60
2019-04-16T18:02:36.940Z,45.50
2019-04-16T18:05:15.608Z,41.83
2019-04-16T18:08:05.409Z,40.30
2019-04-16T18:10:53.829Z,54.63
2019-04-16T18:13:33.514Z,47.63
2019-04-16T18:16:06.516Z,64.63
2019-04-16T18:18:40.900Z,45.87
2019-04-16T18:21:23.142Z,89.30
2019-04-16T18:23:58.469Z,120.40
2019-04-16T18:29:19.292Z,86.17
2019-04-16T18:31:52.414Z,45.93
2019-04-16T18:34:26.651Z,43.27
2019-04-16T18:37:17.956Z,39.70
2019-04-16T18:39:52.096Z,25.30
2019-04-16T18:42:40.230Z,34.80
2019-04-16T18:45:33.411Z,66.67
2019-04-16T18:48:14.024Z,44.37
2019-04-16T18:50:47.433Z,33.27
2019-04-16T18:53:19.967Z,32.90
2019-04-16T18:55:51.417Z,33.40
2019-04-16T18:58:22.931Z,32.53
2019-04-16T19:01:12.750Z,34.67
2019-04-16T19:03:42.858Z,34.63
2019-04-16T19:06:14.360Z,43.87
2019-04-16T19:08:48.725Z,75.10
2019-04-16T19:11:20.534Z,57.50
2019-04-16T19:13:54.025Z,39.83
2019-04-16T19:18:57.986Z,47.83
2019-04-16T19:21:27.520Z,50.93
2019-04-16T19:23:59.181Z,43.13
2019-04-16T19:26:30.528Z,54.43
2019-04-16T19:29:05.337Z,55.07
2019-04-16T19:31:36.298Z,54.93
2019-04-16T19:34:10.249Z,48.03
2019-04-16T19:36:40.770Z,58.15
2019-04-16T19:39:15.181Z,67.10
2019-04-16T19:41:45.240Z,174.80
2019-04-16T19:44:21.325Z,113.73
2019-04-16T19:46:56.112Z,255.77
2019-04-16T19:49:28.728Z,126.73
2019-04-16T19:51:59.944Z,68.90
2019-04-16T19:54:31.838Z,47.40
2019-04-16T19:57:01.867Z,43.47
2019-04-16T19:59:33.110Z,52.70
2019-04-16T20:04:37.218Z,75.20
2019-04-16T20:07:12.627Z,58.17
2019-04-16T20:09:44.605Z,57.07
2019-04-16T20:12:19.382Z,42.73
2019-04-16T20:14:52.972Z,30.05
2019-04-16T20:17:30.370Z,72.23
2019-04-16T20:20:02.858Z,37.00
2019-04-16T20:22:38.478Z,28.27
2019-04-16T20:25:11.393Z,26.00
2019-04-16T20:27:42.811Z,50.67
2019-04-16T20:30:16.026Z,38.60
2019-04-16T20:32:47.671Z,31.53
2019-04-16T20:35:22.919Z,63.77
2019-04-16T20:37:56.838Z,84.47
2019-04-16T20:40:47.832Z,53.93
2019-04-16T20:43:20.519Z,37.57
2019-04-16T20:45:52.810Z,45.67
2019-04-16T20:48:22.898Z,43.73
2019-04-16T20:53:24.046Z,27.37
2019-04-16T20:55:58.805Z,25.13
2019-04-16T20:58:31.466Z,23.27
2019-04-16T21:01:03.865Z,20.33
2019-04-16T21:03:36.652Z,24.07
2019-04-16T21:06:09.893Z,19.07
2019-04-16T21:08:42.298Z,17.43
2019-04-16T21:11:14.705Z,20.30
2019-04-16T21:13:46.915Z,25.77
2019-04-16T21:16:17.725Z,16.07
2019-04-16T21:18:48.977Z,18.43
2019-04-16T21:21:23.373Z,20.40
2019-04-16T21:23:53.891Z,23.83
2019-04-16T21:29:06.065Z,19.57
2019-04-16T21:31:42.357Z,23.47
2019-04-16T21:34:31.738Z,23.73
2019-04-16T21:40:06.440Z,23.33
2019-04-16T21:42:38.031Z,20.50
2019-04-16T21:45:16.357Z,28.87
2019-04-16T21:47:48.262Z,27.23
2019-04-16T21:50:19.703Z,28.43
2019-04-16T21:52:54.886Z,26.10
2019-04-16T21:55:22.765Z,21.37
2019-04-16T21:57:57.684Z,22.47
2019-04-16T22:00:42.802Z,24.50
2019-04-16T22:03:17.905Z,18.80
2019-04-16T22:05:49.230Z,26.70
2019-04-16T22:08:20.547Z,20.73
2019-04-16T22:10:53.179Z,28.13
2019-04-16T22:13:25.579Z,24.80
2019-04-16T22:15:58.878Z,21.70
2019-04-16T22:18:28.731Z,26.77
2019-04-16T22:21:00.931Z,23.67
2019-04-16T22:23:34.159Z,27.93
2019-04-16T22:26:04.028Z,25.03
2019-04-16T22:28:36.632Z,26.00
2019-04-16T22:31:09.073Z,22.00
2019-04-16T22:33:41.231Z,26.13
2019-04-16T22:36:12.638Z,23.67
2019-04-16T22:38:47.255Z,22.07
2019-04-16T22:41:19.113Z,21.17
2019-04-16T22:47:04.103Z,23.67
2019-04-16T22:49:36.702Z,23.03
2019-04-16T22:52:12.245Z,22.73
2019-04-16T22:54:44.512Z,20.33
2019-04-16T22:57:15.405Z,17.43
2019-04-16T22:59:46.719Z,22.47
2019-04-16T23:02:22.129Z,22.07
2019-04-16T23:04:54.844Z,20.63
2019-04-16T23:07:25.387Z,23.37
2019-04-16T23:09:58.144Z,22.13
2019-04-16T23:12:29.333Z,21.43
2019-04-16T23:15:04.648Z,19.60
2019-04-16T23:17:37.138Z,21.60
2019-04-16T23:20:08.568Z,23.60
2019-04-16T23:22:38.675Z,23.47
2019-04-16T23:25:11.304Z,21.80
2019-04-16T23:27:42.867Z,22.63
2019-04-16T23:30:15.709Z,21.60
2019-04-16T23:32:48.745Z,20.00
2019-04-16T23:35:20.165Z,22.70
2019-04-16T23:37:58.324Z,23.07
2019-04-16T23:40:29.153Z,20.17
2019-04-16T23:43:02.036Z,18.67
2019-04-16T23:45:42.686Z,21.20
2019-04-16T23:48:17.909Z,19.50
2019-04-16T23:50:53.157Z,19.57
2019-04-16T23:53:49.829Z,22.27
2019-04-16T23:56:28.995Z,17.47
2019-04-16T23:59:06.666Z,14.93
